createdAt,value
2022-12-31T00:00:40.160Z,10.30
2022-12-31T00:03:09.082Z,9.90
2022-12-31T00:05:38.800Z,9.60
2022-12-31T00:08:07.208Z,8.40
2022-12-31T00:10:41.247Z,7.70
2022-12-31T00:13:09.915Z,6.20
2022-12-31T00:15:38.406Z,5.80
2022-12-31T00:18:07.122Z,5.30
2022-12-31T00:20:35.427Z,4.20
2022-12-31T00:23:05.108Z,4.30
2022-12-31T00:25:35.160Z,4.30
2022-12-31T00:28:03.544Z,4.10
2022-12-31T00:30:31.989Z,3.90
2022-12-31T00:33:00.296Z,3.70
2022-12-31T00:35:28.638Z,2.70
2022-12-31T00:37:56.883Z,2.50
2022-12-31T00:40:26.538Z,2.10
2022-12-31T00:42:54.829Z,2.10
2022-12-31T00:45:23.052Z,1.10
2022-12-31T00:47:51.405Z,1.00
2022-12-31T00:50:20.060Z,1.00
2022-12-31T00:52:48.313Z,1.00
2022-12-31T00:55:16.835Z,1.00
2022-12-31T00:57:46.462Z,1.00
2022-12-31T01:00:17.104Z,1.00
2022-12-31T01:02:45.527Z,1.00
2022-12-31T01:05:13.789Z,1.00
2022-12-31T01:07:42.052Z,1.00
2022-12-31T01:10:11.026Z,1.00
2022-12-31T01:12:39.314Z,1.00
2022-12-31T01:15:10.211Z,1.00
2022-12-31T01:17:38.495Z,1.00
2022-12-31T01:20:08.301Z,1.00
2022-12-31T01:22:36.532Z,1.00
2022-12-31T01:25:05.522Z,1.00
2022-12-31T01:27:33.813Z,1.00
2022-12-31T01:30:02.051Z,1.00
2022-12-31T01:32:31.671Z,1.00
2022-12-31T01:34:59.991Z,1.00
2022-12-31T01:37:28.356Z,1.90
2022-12-31T01:39:56.649Z,1.70
2022-12-31T01:42:24.916Z,2.10
2022-12-31T01:44:55.021Z,1.50
2022-12-31T01:47:34.507Z,2.00
2022-12-31T01:50:08.122Z,1.80
2022-12-31T01:52:38.174Z,1.30
2022-12-31T01:55:10.675Z,1.30
2022-12-31T01:57:38.932Z,1.00
2022-12-31T02:00:09.966Z,1.00
2022-12-31T02:02:39.854Z,1.60
2022-12-31T02:05:15.124Z,3.20
2022-12-31T02:07:43.454Z,4.30
2022-12-31T02:10:11.763Z,5.30
2022-12-31T02:12:40.061Z,5.30
2022-12-31T02:15:09.666Z,5.80
2022-12-31T02:17:45.752Z,6.40
2022-12-31T02:20:38.162Z,5.80
2022-12-31T02:23:42.498Z,5.90
2022-12-31T02:26:29.453Z,5.60
2022-12-31T02:30:01.708Z,6.00
2022-12-31T02:32:36.891Z,5.70
2022-12-31T02:35:09.295Z,5.30
2022-12-31T02:37:37.638Z,4.50
2022-12-31T02:40:08.320Z,3.80
2022-12-31T02:42:36.748Z,3.80
2022-12-31T02:45:08.333Z,3.90
2022-12-31T02:47:47.882Z,3.90
2022-12-31T02:50:28.468Z,3.80
2022-12-31T02:53:02.802Z,5.00
2022-12-31T02:55:35.466Z,5.90
2022-12-31T02:58:09.375Z,5.50
2022-12-31T03:00:59.633Z,5.50
2022-12-31T03:03:28.081Z,6.20
2022-12-31T03:05:56.360Z,6.20
2022-12-31T03:08:25.204Z,6.00
2022-12-31T03:10:53.465Z,6.40
2022-12-31T03:13:20.749Z,6.60
2022-12-31T03:15:50.434Z,6.90
2022-12-31T03:18:39.950Z,7.60
2022-12-31T03:21:30.662Z,8.20
2022-12-31T03:24:16.334Z,8.50
2022-12-31T03:26:44.676Z,8.40
2022-12-31T03:29:13.799Z,8.30
2022-12-31T03:31:43.439Z,8.80
2022-12-31T03:34:11.679Z,9.10
2022-12-31T03:36:39.941Z,9.10
2022-12-31T03:39:08.196Z,9.20
2022-12-31T03:41:36.440Z,8.50
2022-12-31T03:44:04.729Z,8.60
2022-12-31T03:46:33.021Z,8.30
2022-12-31T03:49:02.857Z,8.20
2022-12-31T03:51:31.176Z,8.20
2022-12-31T03:53:59.505Z,7.50
2022-12-31T03:56:27.789Z,7.10
2022-12-31T03:58:56.107Z,7.70
2022-12-31T04:01:25.422Z,7.90
2022-12-31T04:03:53.738Z,7.80
2022-12-31T04:06:23.371Z,8.70
2022-12-31T04:08:51.628Z,8.70
2022-12-31T04:11:21.280Z,8.50
2022-12-31T04:13:49.600Z,7.30
2022-12-31T04:16:17.949Z,7.30
2022-12-31T04:18:46.249Z,6.80
2022-12-31T04:21:14.622Z,6.30
2022-12-31T04:23:44.308Z,6.00
2022-12-31T04:26:12.584Z,5.50
2022-12-31T04:28:40.801Z,5.60
2022-12-31T04:31:09.053Z,5.70
2022-12-31T04:33:37.310Z,5.50
2022-12-31T04:36:06.725Z,5.10
2022-12-31T04:38:35.035Z,5.00
2022-12-31T04:41:20.919Z,5.10
2022-12-31T04:43:50.632Z,4.80
2022-12-31T04:46:20.151Z,4.70
2022-12-31T04:48:48.419Z,4.80
2022-12-31T04:51:16.794Z,5.30
2022-12-31T04:53:45.045Z,4.70
2022-12-31T04:56:14.881Z,4.80
2022-12-31T04:58:43.262Z,4.80
2022-12-31T05:01:11.943Z,4.80
2022-12-31T05:03:40.266Z,4.00
2022-12-31T05:06:10.180Z,4.90
2022-12-31T05:08:38.439Z,4.90
2022-12-31T05:11:06.806Z,4.90
2022-12-31T05:13:36.461Z,4.90
2022-12-31T05:16:05.071Z,4.90
2022-12-31T05:18:33.717Z,4.90
2022-12-31T05:21:02.281Z,5.00
2022-12-31T05:23:30.677Z,5.00
2022-12-31T05:25:59.600Z,4.90
2022-12-31T05:28:27.938Z,6.10
2022-12-31T05:30:57.625Z,8.10
2022-12-31T05:33:25.897Z,8.50
2022-12-31T05:35:54.890Z,8.90
2022-12-31T05:38:23.223Z,9.70
2022-12-31T05:40:51.467Z,9.60
2022-12-31T05:43:19.761Z,13.50
2022-12-31T05:45:48.081Z,15.40
2022-12-31T05:48:17.759Z,17.70
2022-12-31T05:50:46.092Z,18.00
2022-12-31T05:53:14.480Z,20.20
2022-12-31T05:55:42.783Z,21.70
2022-12-31T05:58:11.081Z,21.60
2022-12-31T06:00:39.367Z,22.40
2022-12-31T06:03:07.687Z,23.00
2022-12-31T06:05:40.705Z,23.20
2022-12-31T06:08:08.947Z,23.70
2022-12-31T06:10:37.229Z,24.00
2022-12-31T06:13:05.527Z,24.20
2022-12-31T06:15:33.850Z,24.20
2022-12-31T06:18:02.156Z,24.70
2022-12-31T06:20:30.417Z,25.60
2022-12-31T06:23:00.083Z,25.50
2022-12-31T06:25:28.317Z,25.40
2022-12-31T06:27:56.644Z,24.90
2022-12-31T06:30:24.936Z,25.20
2022-12-31T06:32:53.224Z,25.60
2022-12-31T06:35:22.162Z,25.60
2022-12-31T06:37:50.407Z,26.00
2022-12-31T06:40:20.122Z,26.30
2022-12-31T06:42:48.464Z,26.50
2022-12-31T06:45:16.812Z,26.90
2022-12-31T06:47:45.048Z,27.40
2022-12-31T06:50:13.333Z,27.00
2022-12-31T06:52:41.632Z,27.10
2022-12-31T06:55:12.136Z,27.00
2022-12-31T06:57:42.860Z,27.40
2022-12-31T07:00:13.636Z,26.90
2022-12-31T07:03:06.003Z,26.80
2022-12-31T07:05:40.847Z,26.50
2022-12-31T07:08:19.445Z,26.00
2022-12-31T07:10:54.809Z,26.10
2022-12-31T07:13:43.840Z,25.50
2022-12-31T07:16:27.714Z,24.90
2022-12-31T07:18:59.356Z,23.60
2022-12-31T07:21:33.555Z,23.10
2022-12-31T07:24:02.770Z,22.90
2022-12-31T07:26:47.754Z,21.50
2022-12-31T07:29:22.935Z,21.30
2022-12-31T07:32:00.541Z,21.10
2022-12-31T07:34:34.918Z,20.50
2022-12-31T07:37:06.294Z,19.40
2022-12-31T07:39:42.380Z,19.50
2022-12-31T07:42:16.648Z,18.60
2022-12-31T07:44:56.501Z,18.60
2022-12-31T07:47:26.265Z,17.80
2022-12-31T07:49:55.429Z,17.30
2022-12-31T07:52:24.475Z,16.40
2022-12-31T07:54:52.836Z,15.50
2022-12-31T07:57:21.537Z,14.70
2022-12-31T07:59:59.852Z,14.70
2022-12-31T08:02:41.825Z,14.30
2022-12-31T08:05:14.612Z,13.10
2022-12-31T08:07:46.692Z,12.70
2022-12-31T08:10:19.502Z,12.20
2022-12-31T08:12:48.318Z,11.50
2022-12-31T08:15:20.084Z,10.90
2022-12-31T08:17:51.056Z,10.10
2022-12-31T08:20:19.613Z,9.70
2022-12-31T08:23:15.724Z,9.80
2022-12-31T08:25:58.732Z,9.30
2022-12-31T08:28:33.583Z,9.10
2022-12-31T08:31:06.124Z,9.10
2022-12-31T08:33:39.264Z,8.60
2022-12-31T08:36:14.747Z,7.90
2022-12-31T08:38:48.863Z,8.20
2022-12-31T08:41:22.070Z,7.50
2022-12-31T08:43:57.332Z,6.80
2022-12-31T08:46:30.293Z,6.80
2022-12-31T08:48:59.219Z,6.80
2022-12-31T08:51:28.212Z,6.80
2022-12-31T08:53:57.377Z,6.80
2022-12-31T08:56:30.587Z,6.90
2022-12-31T08:59:12.558Z,6.20
2022-12-31T09:01:54.103Z,7.00
2022-12-31T09:04:26.856Z,6.80
2022-12-31T09:06:58.395Z,5.70
2022-12-31T09:09:36.350Z,5.50
2022-12-31T09:12:10.569Z,5.20
2022-12-31T09:14:47.046Z,4.50
2022-12-31T09:17:41.618Z,2.20
2022-12-31T09:20:21.823Z,2.40
2022-12-31T09:22:50.696Z,1.00
2022-12-31T09:25:21.293Z,1.00
2022-12-31T09:28:00.104Z,1.00
2022-12-31T09:30:29.783Z,1.00
2022-12-31T09:33:02.912Z,1.00
2022-12-31T09:35:36.604Z,1.00
2022-12-31T09:38:11.470Z,1.00
2022-12-31T09:41:05.312Z,1.00
2022-12-31T09:44:33.474Z,1.00
2022-12-31T09:48:00.037Z,1.00
2022-12-31T09:50:51.135Z,1.00
2022-12-31T09:53:54.298Z,1.00
2022-12-31T09:56:26.339Z,1.00
2022-12-31T09:59:02.925Z,1.00
2022-12-31T10:01:44.086Z,1.00
2022-12-31T10:04:39.759Z,1.00
2022-12-31T10:07:27.415Z,1.00
2022-12-31T10:10:08.157Z,1.00
2022-12-31T10:13:10.067Z,1.00
2022-12-31T10:16:05.911Z,1.00
2022-12-31T10:19:01.114Z,1.00
2022-12-31T10:21:43.508Z,1.00
2022-12-31T10:24:41.172Z,1.00
2022-12-31T10:27:23.992Z,1.00
2022-12-31T10:29:59.579Z,1.00
2022-12-31T10:32:35.736Z,1.00
2022-12-31T10:35:30.655Z,1.00
2022-12-31T10:38:11.626Z,1.00
2022-12-31T10:41:39.380Z,1.00
2022-12-31T10:44:54.093Z,1.00
2022-12-31T10:47:54.693Z,1.00
2022-12-31T10:50:59.757Z,1.00
2022-12-31T10:54:04.687Z,1.00
2022-12-31T10:57:07.096Z,1.00
2022-12-31T11:00:16.414Z,1.00
2022-12-31T11:03:53.348Z,1.00
2022-12-31T11:07:05.736Z,1.00
2022-12-31T11:10:23.650Z,1.00
2022-12-31T11:13:38.962Z,1.00
2022-12-31T11:16:43.581Z,1.00
2022-12-31T11:19:18.214Z,1.00
2022-12-31T11:21:59.305Z,1.00
2022-12-31T11:24:38.084Z,1.00
2022-12-31T11:27:19.835Z,1.00
2022-12-31T11:30:02.728Z,1.00
2022-12-31T11:32:44.574Z,1.00
2022-12-31T11:35:32.234Z,1.00
2022-12-31T11:38:05.730Z,1.00
2022-12-31T23:11:05.409Z,1.00
2022-12-31T23:16:40.932Z,1.00
2022-12-31T23:19:28.209Z,1.00
